createdAt,value
2023-04-21T00:01:40.915Z,9.20
2023-04-21T00:04:10.031Z,9.20
2023-04-21T00:06:41.574Z,9.00
2023-04-21T00:09:10.954Z,9.00
2023-04-21T00:11:40.134Z,9.10
2023-04-21T00:17:03.267Z,9.20
2023-04-21T00:19:31.517Z,9.00
2023-04-21T00:22:01.228Z,9.00
2023-04-21T00:24:29.161Z,9.00
2023-04-21T00:26:57.082Z,8.90
2023-04-21T00:29:25.207Z,9.00
2023-04-21T00:31:53.191Z,8.90
2023-04-21T00:34:21.131Z,9.00
2023-04-21T00:36:49.181Z,8.90
2023-04-21T00:39:18.966Z,8.70
2023-04-21T00:41:47.248Z,8.80
2023-04-21T00:44:15.340Z,8.90
2023-04-21T00:46:43.765Z,8.90
2023-04-21T00:49:13.189Z,8.70
2023-04-21T00:51:41.470Z,8.80
2023-04-21T00:54:13.093Z,8.90
2023-04-21T00:56:42.692Z,8.90
2023-04-21T00:59:10.974Z,8.90
2023-04-21T01:01:40.155Z,8.90
2023-04-21T01:04:10.658Z,9.10
2023-04-21T01:06:39.446Z,9.10
2023-04-21T01:09:07.320Z,9.00
2023-04-21T01:11:35.527Z,9.20
2023-04-21T01:14:05.031Z,9.10
2023-04-21T01:16:33.685Z,9.00
2023-04-21T01:19:01.773Z,9.10
2023-04-21T01:21:31.930Z,9.20
2023-04-21T01:24:01.337Z,9.30
2023-04-21T01:26:29.382Z,9.40
2023-04-21T01:28:58.842Z,9.30
2023-04-21T01:31:27.353Z,9.40
2023-04-21T01:33:55.464Z,9.40
2023-04-21T01:36:23.794Z,9.40
2023-04-21T01:38:51.709Z,9.40
2023-04-21T01:41:21.065Z,9.40
2023-04-21T01:43:49.291Z,9.30
2023-04-21T01:46:20.289Z,9.30
2023-04-21T01:48:48.330Z,9.50
2023-04-21T01:51:16.217Z,9.40
2023-04-21T01:53:44.116Z,9.50
2023-04-21T01:56:15.459Z,9.40
2023-04-21T01:58:44.890Z,9.60
2023-04-21T02:01:12.829Z,9.60
2023-04-21T02:03:40.966Z,9.60
2023-04-21T02:06:09.141Z,9.60
2023-04-21T02:08:37.269Z,9.70
2023-04-21T02:11:05.568Z,9.70
2023-04-21T02:13:33.482Z,9.60
2023-04-21T02:16:12.549Z,9.80
2023-04-21T02:18:41.664Z,9.80
2023-04-21T02:21:10.034Z,9.70
2023-04-21T02:23:38.178Z,9.70
2023-04-21T02:26:06.385Z,9.70
2023-04-21T02:28:34.669Z,9.60
2023-04-21T02:31:04.127Z,9.80
2023-04-21T02:33:32.146Z,9.70
2023-04-21T02:36:00.164Z,9.80
2023-04-21T02:38:28.065Z,9.70
2023-04-21T02:40:55.928Z,9.70
2023-04-21T02:43:23.810Z,9.80
2023-04-21T02:45:52.332Z,9.70
2023-04-21T02:48:23.244Z,9.90
2023-04-21T02:50:53.046Z,9.90
2023-04-21T02:53:21.364Z,9.90
2023-04-21T02:55:49.821Z,9.90
2023-04-21T02:58:18.173Z,9.90
2023-04-21T03:00:46.336Z,9.90
2023-04-21T03:03:16.682Z,9.90
2023-04-21T03:05:46.328Z,9.90
2023-04-21T03:08:14.318Z,9.80
2023-04-21T03:10:42.600Z,9.80
2023-04-21T03:13:10.664Z,9.80
2023-04-21T03:15:38.754Z,9.90
2023-04-21T03:18:06.929Z,9.90
2023-04-21T03:20:34.872Z,9.80
2023-04-21T03:23:04.355Z,9.90
2023-04-21T03:25:32.317Z,9.80
2023-04-21T03:28:00.374Z,9.80
2023-04-21T03:30:28.761Z,9.80
2023-04-21T03:32:56.704Z,9.90
2023-04-21T03:35:24.622Z,9.90
2023-04-21T03:37:52.497Z,9.70
2023-04-21T03:40:21.827Z,9.80
2023-04-21T03:42:49.729Z,9.80
2023-04-21T03:45:19.783Z,9.90
2023-04-21T03:47:47.720Z,9.80
2023-04-21T03:50:15.698Z,9.70
2023-04-21T03:52:43.556Z,9.90
2023-04-21T03:55:12.035Z,9.80
2023-04-21T03:57:42.274Z,9.80
2023-04-21T04:00:11.565Z,9.70
2023-04-21T04:02:39.786Z,9.90
2023-04-21T04:05:08.996Z,9.80
2023-04-21T04:07:37.417Z,9.80
2023-04-21T04:10:05.963Z,9.90
2023-04-21T04:12:34.103Z,9.80
2023-04-21T04:15:03.850Z,9.80
2023-04-21T04:17:31.768Z,9.80
2023-04-21T04:19:59.804Z,9.70
2023-04-21T04:22:27.749Z,9.80
2023-04-21T04:24:57.378Z,9.80
2023-04-21T04:27:25.445Z,9.70
2023-04-21T04:29:54.156Z,9.80
2023-04-21T04:32:23.725Z,9.80
2023-04-21T04:34:52.333Z,9.90
2023-04-21T04:37:22.087Z,9.80
2023-04-21T04:39:50.612Z,9.70
2023-04-21T04:42:20.256Z,9.90
2023-04-21T04:44:48.571Z,9.90
2023-04-21T04:47:16.654Z,9.70
2023-04-21T04:49:46.241Z,9.90
2023-04-21T04:52:14.291Z,9.90
2023-04-21T04:54:42.236Z,9.80
2023-04-21T04:57:10.354Z,9.90
2023-04-21T04:59:39.147Z,9.90
2023-04-21T05:02:09.049Z,9.80
2023-04-21T05:04:37.380Z,9.90
2023-04-21T05:07:07.882Z,9.90
2023-04-21T05:09:35.860Z,9.90
2023-04-21T05:12:03.926Z,9.90
2023-04-21T05:14:31.869Z,9.80
2023-04-21T05:16:59.806Z,9.80
2023-04-21T05:19:27.932Z,9.90
2023-04-21T05:22:00.904Z,9.90
2023-04-21T05:24:35.263Z,9.90
2023-04-21T05:27:03.921Z,10.00
2023-04-21T05:29:34.318Z,10.00
2023-04-21T05:32:02.481Z,10.00
2023-04-21T05:34:30.482Z,10.10
2023-04-21T05:36:58.772Z,10.10
2023-04-21T05:39:29.945Z,10.10
2023-04-21T05:41:58.452Z,10.00
2023-04-21T05:44:26.622Z,10.00
2023-04-21T05:46:54.646Z,10.10
2023-04-21T05:49:22.550Z,10.20
2023-04-21T05:51:50.592Z,10.20
2023-04-21T05:54:18.718Z,10.00
2023-04-21T05:56:48.711Z,10.10
2023-04-21T05:59:17.902Z,10.20
2023-04-21T06:01:46.208Z,10.30
2023-04-21T06:04:14.533Z,10.30
2023-04-21T06:06:44.416Z,10.50
2023-04-21T06:09:15.824Z,10.60
2023-04-21T06:11:43.894Z,10.70
2023-04-21T06:14:14.699Z,10.70
2023-04-21T06:16:43.010Z,10.70
2023-04-21T06:19:11.099Z,10.60
2023-04-21T06:21:39.004Z,10.70
2023-04-21T06:24:07.804Z,10.70
2023-04-21T06:26:35.745Z,10.80
2023-04-21T06:29:03.914Z,10.80
2023-04-21T06:31:33.328Z,10.90
2023-04-21T06:34:01.176Z,10.80
2023-04-21T06:36:29.273Z,11.00
2023-04-21T06:38:57.520Z,11.00
2023-04-21T06:41:25.442Z,11.00
2023-04-21T06:43:53.290Z,11.00
2023-04-21T06:46:21.130Z,11.20
2023-04-21T06:48:50.707Z,11.20
2023-04-21T06:51:18.622Z,11.40
2023-04-21T06:53:46.485Z,11.40
2023-04-21T06:56:14.365Z,11.40
2023-04-21T06:58:42.139Z,11.30
2023-04-21T07:01:10.241Z,11.40
2023-04-21T07:03:38.281Z,11.50
2023-04-21T07:06:07.817Z,11.50
2023-04-21T07:08:36.075Z,11.50
2023-04-21T07:11:03.941Z,11.50
2023-04-21T07:13:31.798Z,11.60
2023-04-21T07:15:59.899Z,11.60
2023-04-21T07:18:27.826Z,11.70
2023-04-21T07:20:55.716Z,11.70
2023-04-21T07:23:24.893Z,11.80
2023-04-21T07:25:52.755Z,11.90
2023-04-21T07:28:20.845Z,12.20
2023-04-21T07:30:48.908Z,12.20
2023-04-21T07:33:17.070Z,12.50
2023-04-21T07:35:44.986Z,12.70
2023-04-21T07:38:13.172Z,12.70
2023-04-21T07:40:42.588Z,12.80
2023-04-21T07:43:10.454Z,12.90
2023-04-21T07:45:38.745Z,13.00
2023-04-21T07:48:07.759Z,13.10
2023-04-21T07:50:36.283Z,13.40
2023-04-21T07:53:04.156Z,13.50
2023-04-21T07:55:32.504Z,13.50
2023-04-21T07:58:01.739Z,13.60
2023-04-21T08:00:29.796Z,13.50
2023-04-21T08:02:58.195Z,13.30
2023-04-21T08:05:30.125Z,13.40
2023-04-21T08:08:00.455Z,13.30
2023-04-21T08:10:28.418Z,13.50
2023-04-21T08:12:56.502Z,13.70
2023-04-21T08:15:25.999Z,13.90
2023-04-21T08:17:54.856Z,14.30
2023-04-21T08:20:23.161Z,14.30
2023-04-21T08:22:51.158Z,14.20
2023-04-21T08:25:19.306Z,14.40
2023-04-21T08:27:47.193Z,14.50
2023-04-21T08:30:15.840Z,14.70
2023-04-21T08:32:45.564Z,14.80
2023-04-21T08:35:13.879Z,15.00
2023-04-21T08:37:41.779Z,15.20
2023-04-21T08:40:10.618Z,15.30
2023-04-21T08:42:39.502Z,15.20
2023-04-21T08:45:08.592Z,15.20
2023-04-21T08:47:37.643Z,15.20
2023-04-21T08:50:12.781Z,15.20
2023-04-21T08:52:40.912Z,15.20
2023-04-21T08:55:11.201Z,15.40
2023-04-21T08:57:39.045Z,15.40
2023-04-21T09:00:08.494Z,15.50
2023-04-21T09:03:00.067Z,15.20
2023-04-21T09:05:32.574Z,15.20
2023-04-21T09:08:10.246Z,15.20
2023-04-21T09:10:44.793Z,15.20
2023-04-21T09:13:12.776Z,15.10
2023-04-21T09:15:41.598Z,14.90
2023-04-21T09:18:14.659Z,15.00
2023-04-21T09:20:45.784Z,15.30
2023-04-21T09:23:14.312Z,15.30
2023-04-21T09:25:43.489Z,15.30
2023-04-21T09:28:12.514Z,15.40
2023-04-21T09:30:42.047Z,15.50
2023-04-21T09:33:27.182Z,15.70
2023-04-21T09:36:02.713Z,15.50
2023-04-21T09:38:30.554Z,15.60
2023-04-21T09:40:59.285Z,15.60
2023-04-21T09:43:27.291Z,15.50
2023-04-21T09:45:56.813Z,15.60
2023-04-21T09:48:29.405Z,15.60
2023-04-21T09:53:35.485Z,15.60
2023-04-21T09:56:04.724Z,15.70
2023-04-21T09:58:40.393Z,15.80
2023-04-21T10:01:09.343Z,15.70
2023-04-21T10:03:40.636Z,15.80
2023-04-21T10:06:10.584Z,15.90
2023-04-21T10:08:38.904Z,16.00
2023-04-21T10:11:07.908Z,16.20
2023-04-21T10:13:37.826Z,16.20
2023-04-21T10:16:08.129Z,16.30
2023-04-21T10:18:38.443Z,16.50
2023-04-21T10:21:09.009Z,16.60
2023-04-21T10:23:44.395Z,16.80
2023-04-21T10:26:15.025Z,16.80
2023-04-21T10:28:44.389Z,16.70
2023-04-21T10:31:20.454Z,16.90
2023-04-21T10:34:13.632Z,17.00
2023-04-21T10:36:49.965Z,17.10
2023-04-21T10:39:29.678Z,17.00
2023-04-21T10:41:59.063Z,17.10
2023-04-21T10:44:30.945Z,17.00
2023-04-21T10:46:59.998Z,17.10
2023-04-21T10:49:30.229Z,17.10
2023-04-21T10:52:09.146Z,17.30
2023-04-21T10:54:45.841Z,17.10
2023-04-21T10:57:15.730Z,17.40
2023-04-21T10:59:44.276Z,17.60
2023-04-21T11:02:14.328Z,17.60
2023-04-21T11:04:47.795Z,17.70
2023-04-21T11:07:18.518Z,17.50
2023-04-21T11:09:48.739Z,17.80
2023-04-21T11:12:18.939Z,17.90
2023-04-21T11:14:48.365Z,17.70
2023-04-21T11:17:18.331Z,17.90
2023-04-21T11:19:47.278Z,18.30
2023-04-21T11:22:14.937Z,18.70
2023-04-21T11:24:45.151Z,18.80
2023-04-21T11:27:14.749Z,18.90
2023-04-21T11:29:42.747Z,18.60
2023-04-21T11:32:10.504Z,18.50
2023-04-21T11:34:39.106Z,18.50
2023-04-21T11:37:08.319Z,18.50
2023-04-21T11:39:36.002Z,18.30
2023-04-21T11:42:04.245Z,18.30
2023-04-21T11:44:34.480Z,18.20
2023-04-21T11:47:02.259Z,18.30
2023-04-21T11:49:30.738Z,18.40
2023-04-21T11:51:58.466Z,18.50
2023-04-21T11:54:26.131Z,18.70
2023-04-21T11:56:55.299Z,18.70
2023-04-21T11:59:25.758Z,19.00
2023-04-21T12:01:55.443Z,19.40
2023-04-21T12:04:23.709Z,19.60
2023-04-21T12:06:57.882Z,19.70
2023-04-21T12:09:25.649Z,20.00
2023-04-21T12:11:53.975Z,20.20
2023-04-21T12:14:22.609Z,20.00
2023-04-21T12:16:51.456Z,19.80
2023-04-21T12:19:35.422Z,19.70
2023-04-21T12:22:03.154Z,19.50
2023-04-21T12:24:30.906Z,19.50
2023-04-21T12:26:59.020Z,19.40
2023-04-21T12:29:26.672Z,19.30
2023-04-21T12:31:54.406Z,19.20
2023-04-21T12:34:22.144Z,19.10
2023-04-21T12:36:51.168Z,19.20
2023-04-21T12:39:19.464Z,19.20
2023-04-21T12:41:48.774Z,19.20
2023-04-21T12:44:16.722Z,19.40
2023-04-21T12:46:44.380Z,19.30
2023-04-21T12:49:12.046Z,19.20
2023-04-21T12:51:39.691Z,19.30
2023-04-21T12:54:08.753Z,19.20
2023-04-21T12:56:36.440Z,19.10
2023-04-21T12:59:04.128Z,19.00
2023-04-21T13:01:31.894Z,18.80
2023-04-21T13:04:00.458Z,18.60
2023-04-21T13:06:28.902Z,18.60
2023-04-21T13:08:56.721Z,18.60
2023-04-21T13:11:25.799Z,18.60
2023-04-21T13:13:53.780Z,18.70
2023-04-21T13:16:21.758Z,18.50
2023-04-21T13:18:49.498Z,18.60
2023-04-21T13:21:17.142Z,18.70
2023-04-21T13:23:44.850Z,18.60
2023-04-21T13:26:12.696Z,18.70
2023-04-21T13:28:41.712Z,18.60
2023-04-21T13:31:09.436Z,18.60
2023-04-21T13:33:37.246Z,18.50
2023-04-21T13:36:05.376Z,18.70
2023-04-21T13:38:33.212Z,18.70
2023-04-21T13:41:01.243Z,18.80
2023-04-21T13:43:28.995Z,19.00
2023-04-21T13:45:58.143Z,19.20
2023-04-21T13:48:26.596Z,19.20
2023-04-21T13:50:54.234Z,19.30
2023-04-21T13:53:22.027Z,19.40
2023-04-21T13:55:49.803Z,19.60
2023-04-21T13:58:17.988Z,19.70
2023-04-21T14:00:45.760Z,19.70
2023-04-21T14:03:15.098Z,19.90
2023-04-21T14:05:43.317Z,20.00
2023-04-21T14:08:11.738Z,20.00
2023-04-21T14:10:39.637Z,20.10
2023-04-21T14:13:07.345Z,20.00
2023-04-21T14:15:35.459Z,20.00
2023-04-21T14:18:03.259Z,19.90
2023-04-21T14:20:32.327Z,19.90
2023-04-21T14:23:00.112Z,20.00
2023-04-21T14:25:28.048Z,20.20
2023-04-21T14:27:55.877Z,20.20
2023-04-21T14:30:23.680Z,20.00
2023-04-21T14:32:51.484Z,20.00
2023-04-21T14:35:19.245Z,20.20
2023-04-21T14:37:48.524Z,20.10
2023-04-21T14:40:16.410Z,20.30
2023-04-21T14:42:44.144Z,20.30
2023-04-21T14:45:12.137Z,20.50
2023-04-21T14:47:39.890Z,20.40
2023-04-21T14:50:08.267Z,20.30
2023-04-21T14:52:36.060Z,20.30
2023-04-21T14:55:05.733Z,20.30
2023-04-21T14:57:33.497Z,20.20
2023-04-21T15:00:01.994Z,20.20
2023-04-21T15:02:30.067Z,20.10
2023-04-21T15:04:58.302Z,20.10
2023-04-21T15:07:26.066Z,20.10
2023-04-21T15:09:55.623Z,20.10
2023-04-21T15:12:24.921Z,20.10
2023-04-21T15:14:52.770Z,20.20
2023-04-21T15:17:20.604Z,20.20
2023-04-21T15:19:48.453Z,20.40
2023-04-21T15:22:16.120Z,20.20
2023-04-21T15:24:43.878Z,20.00
2023-04-21T15:27:11.707Z,20.00
2023-04-21T15:29:40.768Z,19.80
2023-04-21T15:32:08.678Z,19.80
2023-04-21T15:34:36.758Z,19.70
2023-04-21T15:37:04.523Z,19.60
2023-04-21T15:39:32.590Z,19.60
2023-04-21T15:42:01.472Z,19.30
2023-04-21T15:44:29.140Z,19.30
2023-04-21T15:46:58.813Z,19.30
2023-04-21T15:49:26.675Z,19.20
2023-04-21T15:51:54.486Z,19.00
2023-04-21T15:54:22.651Z,19.00
2023-04-21T15:56:50.496Z,18.70
2023-04-21T15:59:18.188Z,18.80
2023-04-21T16:01:46.054Z,18.80
2023-04-21T16:04:16.279Z,18.70
2023-04-21T16:06:44.123Z,18.60
2023-04-21T16:09:12.030Z,18.60
2023-04-21T16:11:40.206Z,18.50
2023-04-21T16:14:07.879Z,18.50
2023-04-21T16:16:36.870Z,18.30
2023-04-21T16:19:04.975Z,18.30
2023-04-21T16:21:34.852Z,18.20
2023-04-21T16:24:05.315Z,18.30
2023-04-21T16:26:35.713Z,18.30
2023-04-21T16:29:03.793Z,18.30
2023-04-21T16:31:31.848Z,18.40
2023-04-21T16:34:00.630Z,18.30
2023-04-21T16:36:29.531Z,18.30
2023-04-21T16:38:58.655Z,18.40
2023-04-21T16:41:26.512Z,18.40
2023-04-21T16:43:54.302Z,18.40
2023-04-21T16:46:22.318Z,18.40
2023-04-21T16:48:50.540Z,18.30
2023-04-21T16:51:18.508Z,18.20
2023-04-21T16:53:46.329Z,18.30
2023-04-21T16:56:15.853Z,18.20
2023-04-21T16:58:43.790Z,18.20
2023-04-21T17:01:11.878Z,18.10
2023-04-21T17:03:39.959Z,18.20
2023-04-21T17:06:10.769Z,18.10
2023-04-21T17:08:38.615Z,18.10
2023-04-21T17:11:06.429Z,18.10
2023-04-21T17:13:38.837Z,18.10
2023-04-21T17:16:07.901Z,18.10
2023-04-21T17:18:36.437Z,18.20
2023-04-21T17:21:06.012Z,18.30
2023-04-21T17:23:33.890Z,18.50
2023-04-21T17:26:01.626Z,18.40
2023-04-21T17:28:29.529Z,18.50
2023-04-21T17:31:13.884Z,18.50
2023-04-21T17:33:43.729Z,18.40
2023-04-21T17:36:12.431Z,18.40
2023-04-21T17:38:41.860Z,18.30
2023-04-21T17:41:09.534Z,18.30
2023-04-21T17:43:37.446Z,18.10
2023-04-21T17:46:06.913Z,18.00
2023-04-21T17:48:34.841Z,17.70
2023-04-21T17:51:03.831Z,17.60
2023-04-21T17:53:31.990Z,17.60
2023-04-21T17:55:59.723Z,17.50
2023-04-21T17:58:27.608Z,17.40
2023-04-21T18:00:55.491Z,17.30
2023-04-21T18:03:24.822Z,17.30
2023-04-21T18:05:52.946Z,17.20
2023-04-21T18:08:20.743Z,17.10
2023-04-21T18:10:48.462Z,17.00
2023-04-21T18:13:16.296Z,16.90
2023-04-21T18:15:43.968Z,16.70
2023-04-21T18:18:12.003Z,16.80
2023-04-21T18:20:41.390Z,16.70
2023-04-21T18:23:09.382Z,16.60
2023-04-21T18:25:42.722Z,16.60
2023-04-21T18:28:13.164Z,16.60
2023-04-21T18:30:44.368Z,16.60
2023-04-21T18:33:12.426Z,16.50
2023-04-21T18:35:42.679Z,16.30
2023-04-21T18:38:12.041Z,16.20
2023-04-21T18:40:40.652Z,15.50
2023-04-21T18:43:09.674Z,14.60
2023-04-21T18:45:38.710Z,14.00
2023-04-21T18:48:08.254Z,13.50
2023-04-21T18:50:40.335Z,13.10
2023-04-21T18:53:10.356Z,12.80
2023-04-21T18:55:38.513Z,12.60
2023-04-21T18:58:06.923Z,12.30
2023-04-21T19:00:37.857Z,12.10
2023-04-21T19:03:06.729Z,11.90
2023-04-21T19:05:35.874Z,11.90
2023-04-21T19:08:04.199Z,11.80
2023-04-21T19:10:35.465Z,12.00
2023-04-21T19:13:03.600Z,11.80
2023-04-21T19:15:31.580Z,11.90
2023-04-21T19:17:59.874Z,12.00
2023-04-21T19:20:28.031Z,12.00
2023-04-21T19:22:56.160Z,11.90
2023-04-21T19:25:24.209Z,12.00
2023-04-21T19:27:53.655Z,11.70
2023-04-21T19:30:21.871Z,11.60
2023-04-21T19:32:50.269Z,11.50
2023-04-21T19:35:19.541Z,11.40
2023-04-21T19:37:47.864Z,11.30
2023-04-21T19:40:15.839Z,11.30
2023-04-21T19:42:43.957Z,11.30
2023-04-21T19:45:13.698Z,11.40
2023-04-21T19:47:42.132Z,11.40
2023-04-21T19:50:11.257Z,11.30
2023-04-21T19:52:39.294Z,11.40
2023-04-21T19:55:07.991Z,11.40
2023-04-21T19:57:37.032Z,11.50
2023-04-21T20:00:08.854Z,11.40
2023-04-21T20:02:38.251Z,11.60
2023-04-21T20:05:08.024Z,11.60
2023-04-21T20:07:36.503Z,11.50
2023-04-21T20:10:04.988Z,11.60
2023-04-21T20:12:32.919Z,11.60
2023-04-21T20:15:01.321Z,11.60
2023-04-21T20:17:29.345Z,11.50
2023-04-21T20:19:58.833Z,11.40
2023-04-21T20:22:26.842Z,11.30
2023-04-21T20:24:57.857Z,11.30
2023-04-21T20:27:26.295Z,11.30
2023-04-21T20:29:54.284Z,11.40
2023-04-21T20:32:22.387Z,11.40
2023-04-21T20:34:51.837Z,11.40
2023-04-21T20:37:23.052Z,11.30
2023-04-21T20:39:52.784Z,11.40
2023-04-21T20:42:21.882Z,11.50
2023-04-21T20:44:50.224Z,11.50
2023-04-21T20:47:19.452Z,11.40
2023-04-21T20:49:48.865Z,11.50
2023-04-21T20:52:17.157Z,11.50
2023-04-21T20:54:46.614Z,11.50
2023-04-21T20:57:14.857Z,11.60
2023-04-21T20:59:42.822Z,11.60
2023-04-21T21:02:11.103Z,11.60
2023-04-21T21:04:39.285Z,11.60
2023-04-21T21:07:07.418Z,11.60
2023-04-21T21:09:35.659Z,11.60
2023-04-21T21:12:05.578Z,11.60
2023-04-21T21:14:33.673Z,11.60
2023-04-21T21:17:02.864Z,11.70
2023-04-21T21:19:31.336Z,11.60
2023-04-21T21:21:59.190Z,11.60
2023-04-21T21:24:28.783Z,11.60
2023-04-21T21:26:57.500Z,11.70
2023-04-21T21:29:26.882Z,11.80
2023-04-21T21:31:55.085Z,11.80
2023-04-21T21:34:23.070Z,11.70
2023-04-21T21:36:51.098Z,11.90
2023-04-21T21:39:19.433Z,11.70
2023-04-21T21:41:47.346Z,11.70
2023-04-21T21:44:17.368Z,11.60
2023-04-21T21:46:49.670Z,11.50
2023-04-21T21:49:17.745Z,11.30
2023-04-21T21:51:45.672Z,11.20
2023-04-21T21:54:13.871Z,11.20
2023-04-21T21:56:42.130Z,11.20
2023-04-21T21:59:10.088Z,11.00
2023-04-21T22:01:38.250Z,11.10
2023-04-21T22:04:07.862Z,11.00
2023-04-21T22:06:36.112Z,10.90
2023-04-21T22:09:05.178Z,11.00
2023-04-21T22:11:33.408Z,11.00
2023-04-21T22:14:11.330Z,10.90
2023-04-21T22:16:50.488Z,11.00
2023-04-21T22:19:20.877Z,10.80
2023-04-21T22:21:49.215Z,10.90
2023-04-21T22:24:17.436Z,10.90
2023-04-21T22:26:45.707Z,10.90
2023-04-21T22:29:13.984Z,10.90
2023-04-21T22:31:42.211Z,10.80
2023-04-21T22:34:10.308Z,10.80
2023-04-21T22:36:39.904Z,10.70
2023-04-21T22:39:08.373Z,10.70
2023-04-21T22:41:36.289Z,10.70
2023-04-21T22:44:04.496Z,10.70
2023-04-21T22:46:33.867Z,10.40
2023-04-21T22:49:03.809Z,10.40
2023-04-21T22:51:32.605Z,10.30
2023-04-21T22:54:02.300Z,10.40
2023-04-21T22:56:31.415Z,10.30
2023-04-21T22:58:59.765Z,10.20
2023-04-21T23:01:28.155Z,10.20
2023-04-21T23:03:56.372Z,10.00
2023-04-21T23:06:24.553Z,10.10
2023-04-21T23:08:53.092Z,10.00
2023-04-21T23:11:22.744Z,9.90
2023-04-21T23:13:50.854Z,9.80
2023-04-21T23:16:18.794Z,9.90
2023-04-21T23:18:46.752Z,9.90
2023-04-21T23:21:14.784Z,9.90
2023-04-21T23:23:42.743Z,9.90
2023-04-21T23:26:11.040Z,9.80
2023-04-21T23:28:41.095Z,9.70
2023-04-21T23:31:09.269Z,9.50
2023-04-21T23:33:37.342Z,9.60
2023-04-21T23:36:05.478Z,9.40
2023-04-21T23:38:33.405Z,9.40
2023-04-21T23:41:01.393Z,9.40
2023-04-21T23:43:29.503Z,9.30
2023-04-21T23:45:58.850Z,9.30
2023-04-21T23:48:27.262Z,9.30
2023-04-21T23:50:55.357Z,9.30
2023-04-21T23:53:23.755Z,9.30
2023-04-21T23:55:52.153Z,9.20
2023-04-21T23:58:20.164Z,9.10
